Orbital elements of BREEZE-M DEB
| Launched | 27 February 2006 |
| Flight ended | – |
| Launch site | Tyuratam Missile and Space Center, Kazakhstan (Also known as Baikonur Cosmodrome) |
| Owner | Commonwealth of Independent States (former USSR) |
| NORAD ID | 32037 |
| Date fetched |
Epoch osculation |
Inc. [°] |
Ecc. | RA asc node [hr] |
Arg Peri. [°] |
Mean anom [°] |
Mean motion [rev/day] |
Abs. mag |
| Date fetched |
Epoch osculation |
Inc. [°] |
Ecc. | RA asc node [hr] |
Arg Peri. [°] |
Mean anom [°] |
Mean motion [rev/day] |
Abs. mag |
| 2026 May 04 17:57 | 2026 Apr 29 23:50:48 | 51.6561 | 0.47849 | 22.5245 | 73.4674 | 332.5496 | 5.88353 | – |
| 2026 May 03 17:57 | 2026 Apr 29 23:50:48 | 51.6561 | 0.47849 | 22.5245 | 73.4674 | 332.5496 | 5.88353 | – |
| 2026 May 02 17:57 | 2026 Apr 29 23:50:48 | 51.6561 | 0.47849 | 22.5245 | 73.4674 | 332.5496 | 5.88353 | – |
| 2026 May 01 17:56 | 2026 Apr 29 23:50:48 | 51.6561 | 0.47849 | 22.5245 | 73.4674 | 332.5496 | 5.88353 | – |
| 2026 Apr 30 17:56 | 2026 Apr 29 23:50:48 | 51.6561 | 0.47849 | 22.5245 | 73.4674 | 332.5496 | 5.88353 | – |
| 2026 Apr 29 17:57 | 2026 Apr 24 01:05:18 | 51.6552 | 0.47852 | 22.8699 | 69.6105 | 332.5496 | 5.88353 | – |
| 2026 Apr 28 17:56 | 2026 Apr 24 01:05:18 | 51.6552 | 0.47852 | 22.8699 | 69.6105 | 332.5496 | 5.88353 | – |
| 2026 Apr 27 17:58 | 2026 Apr 24 01:05:18 | 51.6552 | 0.47852 | 22.8699 | 69.6105 | 332.5496 | 5.88353 | – |
| 2026 Apr 26 17:58 | 2026 Apr 24 01:05:18 | 51.6552 | 0.47852 | 22.8699 | 69.6105 | 332.5496 | 5.88353 | – |
| 2026 Apr 25 17:58 | 2026 Apr 24 01:05:18 | 51.6552 | 0.47852 | 22.8699 | 69.6105 | 332.5496 | 5.88353 | – |
| 2026 Apr 24 17:59 | 2026 Apr 24 01:05:18 | 51.6552 | 0.47852 | 22.8699 | 69.6105 | 332.5496 | 5.88353 | – |
| 2026 Apr 23 17:57 | 2026 Apr 19 02:47:24 | 51.6555 | 0.47855 | 23.1560 | 66.4137 | 332.5496 | 5.88353 | – |
| 2026 Apr 22 17:57 | 2026 Apr 19 02:47:24 | 51.6555 | 0.47855 | 23.1560 | 66.4137 | 332.5496 | 5.88353 | – |
| 2026 Apr 21 17:57 | 2026 Apr 19 02:47:24 | 51.6555 | 0.47855 | 23.1560 | 66.4137 | 332.5496 | 5.88353 | – |
| 2026 Apr 20 17:57 | 2026 Apr 19 02:47:24 | 51.6555 | 0.47855 | 23.1560 | 66.4137 | 332.5496 | 5.88353 | – |
| 2026 Apr 19 17:58 | 2026 Apr 19 02:47:24 | 51.6555 | 0.47855 | 23.1560 | 66.4137 | 332.5496 | 5.88353 | – |
| 2026 Apr 18 17:56 | 2026 Apr 12 23:55:23 | 51.6563 | 0.47856 | 23.5112 | 62.4440 | 332.5496 | 5.88353 | – |
| 2026 Apr 16 17:57 | 2026 Apr 12 23:55:23 | 51.6563 | 0.47856 | 23.5112 | 62.4440 | 332.5496 | 5.88353 | – |
| 2026 Apr 14 17:57 | 2026 Apr 12 23:55:23 | 51.6563 | 0.47856 | 23.5112 | 62.4440 | 332.5496 | 5.88353 | – |
| 2026 Apr 13 17:57 | 2026 Apr 12 23:55:23 | 51.6563 | 0.47856 | 23.5112 | 62.4440 | 332.5496 | 5.88353 | – |
| 2026 Apr 12 17:57 | 2026 Apr 08 01:36:12 | 51.6575 | 0.47858 | 23.7972 | 59.2539 | 332.5496 | 5.88353 | – |
| 2026 Apr 11 17:57 | 2026 Apr 08 01:36:12 | 51.6575 | 0.47858 | 23.7972 | 59.2539 | 332.5496 | 5.88353 | – |
| 2026 Apr 10 17:58 | 2026 Apr 08 01:36:12 | 51.6575 | 0.47858 | 23.7972 | 59.2539 | 332.5496 | 5.88353 | – |
| 2026 Apr 09 18:01 | 2026 Apr 08 01:36:12 | 51.6575 | 0.47858 | 23.7972 | 59.2539 | 332.5496 | 5.88353 | – |
| 2026 Apr 08 17:57 | 2026 Apr 08 01:36:12 | 51.6575 | 0.47858 | 23.7972 | 59.2539 | 332.5496 | 5.88353 | – |
| 2026 Apr 07 17:57 | 2026 Apr 01 22:42:11 | 51.6559 | 0.47861 | 0.1520 | 55.2921 | 332.5496 | 5.88353 | – |